createdAt,value
2019-05-22T00:00:49.110Z,15.30
2019-05-22T00:03:21.906Z,15.30
2019-05-22T00:05:52.922Z,13.70
2019-05-22T00:08:27.722Z,15.30
2019-05-22T00:11:02.075Z,13.00
2019-05-22T00:13:40.011Z,14.20
2019-05-22T00:16:12.751Z,14.23
2019-05-22T00:18:45.382Z,15.90
2019-05-22T00:21:20.914Z,14.20
2019-05-22T00:23:54.986Z,15.13
2019-05-22T00:26:26.646Z,15.60
2019-05-22T00:28:59.530Z,15.80
2019-05-22T00:31:32.016Z,15.73
2019-05-22T00:34:05.220Z,15.27
2019-05-22T00:36:37.867Z,14.77
2019-05-22T00:39:12.831Z,15.23
2019-05-22T00:41:48.456Z,16.57
2019-05-22T00:44:22.354Z,15.60
2019-05-22T00:46:55.506Z,16.00
2019-05-22T00:49:30.652Z,17.50
2019-05-22T00:52:32.135Z,15.63
2019-05-22T00:55:28.585Z,15.30
2019-05-22T00:58:32.365Z,16.80
2019-05-22T01:01:26.860Z,16.27
2019-05-22T01:04:01.899Z,14.77
2019-05-22T01:06:35.962Z,15.63
2019-05-22T01:09:12.466Z,17.03
2019-05-22T01:11:48.025Z,15.80
2019-05-22T01:14:21.281Z,17.20
2019-05-22T01:16:56.409Z,16.40
2019-05-22T01:19:30.291Z,16.47
2019-05-22T01:22:05.196Z,16.50
2019-05-22T01:24:38.981Z,15.77
2019-05-22T01:27:11.275Z,16.00
2019-05-22T01:29:46.894Z,15.90
2019-05-22T01:32:24.914Z,15.77
2019-05-22T01:34:57.298Z,15.03
2019-05-22T01:37:30.557Z,17.43
2019-05-22T01:40:13.316Z,16.80
2019-05-22T01:42:48.757Z,15.20
2019-05-22T01:45:24.097Z,16.17
2019-05-22T01:48:06.054Z,17.97
2019-05-22T01:50:48.902Z,16.97
2019-05-22T01:53:24.027Z,17.17
2019-05-22T01:56:00.163Z,17.77
2019-05-22T01:58:32.306Z,16.37
2019-05-22T02:01:09.109Z,16.50
2019-05-22T02:03:40.778Z,17.17
2019-05-22T02:06:12.609Z,18.00
2019-05-22T02:08:57.382Z,17.60
2019-05-22T02:11:30.787Z,18.57
2019-05-22T02:14:12.467Z,17.90
2019-05-22T02:16:55.967Z,15.10
2019-05-22T02:19:20.751Z,15.50
2019-05-22T02:21:53.149Z,16.37
2019-05-22T02:24:25.122Z,16.77
2019-05-22T02:26:57.650Z,17.90
2019-05-22T02:29:30.100Z,16.87
2019-05-22T02:32:02.430Z,16.63
2019-05-22T02:34:35.423Z,16.47
2019-05-22T02:37:08.809Z,17.43
2019-05-22T02:39:41.219Z,14.97
2019-05-22T02:42:19.828Z,15.40
2019-05-22T02:44:51.898Z,15.17
2019-05-22T02:47:25.158Z,14.50
2019-05-22T02:49:59.589Z,15.37
2019-05-22T02:52:31.671Z,14.93
2019-05-22T02:55:04.449Z,14.77
2019-05-22T02:57:37.070Z,15.17
2019-05-22T03:00:09.287Z,15.37
2019-05-22T03:02:49.974Z,16.07
2019-05-22T03:05:22.913Z,14.07
2019-05-22T03:07:55.821Z,14.67
2019-05-22T03:10:29.384Z,13.57
2019-05-22T03:13:02.297Z,13.50
2019-05-22T03:15:35.040Z,14.10
2019-05-22T03:18:08.701Z,14.40
2019-05-22T03:20:41.774Z,14.40
2019-05-22T03:23:36.821Z,14.97
2019-05-22T03:26:11.340Z,14.90
2019-05-22T03:28:44.870Z,15.10
2019-05-22T03:31:18.443Z,15.40
2019-05-22T03:33:50.714Z,14.87
2019-05-22T03:36:22.902Z,14.10
2019-05-22T03:38:55.289Z,15.07
2019-05-22T03:41:27.735Z,14.97
2019-05-22T03:44:01.949Z,15.50
2019-05-22T03:46:45.223Z,14.70
2019-05-22T03:49:29.910Z,13.63
2019-05-22T03:51:55.669Z,13.63
2019-05-22T03:54:27.255Z,16.07
2019-05-22T03:56:59.742Z,14.40
2019-05-22T03:59:32.489Z,15.63
2019-05-22T04:02:06.281Z,12.47
2019-05-22T04:04:41.210Z,13.13
2019-05-22T04:07:16.623Z,13.53
2019-05-22T04:09:49.420Z,12.43
2019-05-22T04:12:21.694Z,12.90
2019-05-22T04:14:54.130Z,14.20
2019-05-22T04:17:27.783Z,12.57
2019-05-22T04:19:59.608Z,12.90
2019-05-22T04:22:32.179Z,11.90
2019-05-22T04:25:04.860Z,12.47
2019-05-22T04:27:37.174Z,12.40
2019-05-22T04:30:12.818Z,11.77
2019-05-22T04:32:45.897Z,12.20
2019-05-22T04:35:20.359Z,12.80
2019-05-22T04:37:52.672Z,12.30
2019-05-22T04:40:51.522Z,12.07
2019-05-22T04:43:25.081Z,11.03
2019-05-22T04:45:58.746Z,11.23
2019-05-22T04:48:36.623Z,12.27
2019-05-22T04:51:29.301Z,11.30
2019-05-22T04:54:01.217Z,10.67
2019-05-22T04:56:32.929Z,10.77
2019-05-22T04:59:05.473Z,11.20
2019-05-22T05:01:37.958Z,12.37
2019-05-22T05:04:09.756Z,10.90
2019-05-22T05:06:42.154Z,10.90
2019-05-22T05:09:14.956Z,11.57
2019-05-22T05:11:46.770Z,12.40
2019-05-22T05:14:18.685Z,10.80
2019-05-22T05:16:51.093Z,11.57
2019-05-22T05:19:23.151Z,12.00
2019-05-22T05:21:55.247Z,11.20
2019-05-22T05:24:27.787Z,11.43
2019-05-22T05:27:00.699Z,12.90
2019-05-22T05:29:33.407Z,11.50
2019-05-22T05:32:06.224Z,11.57
2019-05-22T05:35:03.113Z,11.57
2019-05-22T05:37:35.722Z,10.27
2019-05-22T05:40:40.301Z,11.13
2019-05-22T05:43:19.598Z,10.80
2019-05-22T05:45:53.044Z,11.00
2019-05-22T05:48:26.290Z,11.00
2019-05-22T05:51:25.653Z,10.57
2019-05-22T05:54:06.301Z,11.20
2019-05-22T05:56:41.269Z,13.80
2019-05-22T05:59:14.120Z,10.80
2019-05-22T06:01:48.932Z,11.17
2019-05-22T06:04:38.046Z,10.30
2019-05-22T06:07:24.341Z,11.93
2019-05-22T06:11:10.877Z,10.80
2019-05-22T06:13:42.514Z,9.50
2019-05-22T06:17:29.209Z,10.97
2019-05-22T06:20:08.432Z,10.87
2019-05-22T06:22:41.374Z,9.00
2019-05-22T06:25:14.202Z,10.70
2019-05-22T06:27:53.243Z,10.43
2019-05-22T06:30:44.440Z,9.30
2019-05-22T06:33:35.969Z,9.33
2019-05-22T06:36:17.303Z,10.60
2019-05-22T06:39:10.142Z,10.93
2019-05-22T06:41:44.072Z,9.33
2019-05-22T06:44:44.681Z,9.20
2019-05-22T06:47:28.784Z,8.90
2019-05-22T06:50:00.504Z,8.67
2019-05-22T06:52:32.435Z,10.80
2019-05-22T06:55:04.819Z,9.10
2019-05-22T06:57:36.774Z,9.70
2019-05-22T07:00:22.884Z,9.63
2019-05-22T07:02:54.733Z,9.27
2019-05-22T07:05:27.044Z,9.93
2019-05-22T07:07:59.304Z,9.70
2019-05-22T07:10:33.263Z,10.90
2019-05-22T07:13:05.136Z,8.80
2019-05-22T07:15:53.876Z,9.27
2019-05-22T07:18:31.674Z,8.70
2019-05-22T07:21:03.733Z,9.43
2019-05-22T07:23:36.838Z,9.17
2019-05-22T07:26:08.811Z,9.60
2019-05-22T07:28:41.008Z,9.80
2019-05-22T07:31:12.694Z,9.30
2019-05-22T07:33:44.753Z,9.70
2019-05-22T07:36:17.881Z,9.80
2019-05-22T07:38:50.176Z,10.67
2019-05-22T07:41:22.500Z,8.93
2019-05-22T07:43:54.227Z,8.80
2019-05-22T07:46:26.284Z,8.83
2019-05-22T07:48:58.259Z,9.67
2019-05-22T07:51:31.091Z,9.00
2019-05-22T07:54:02.962Z,8.60
2019-05-22T07:56:35.310Z,8.60
2019-05-22T07:59:07.584Z,8.80
2019-05-22T08:01:40.443Z,9.33
2019-05-22T08:04:13.643Z,9.00
2019-05-22T08:06:47.589Z,9.00
2019-05-22T08:09:21.076Z,9.00
2019-05-22T08:11:54.114Z,8.80
2019-05-22T08:14:27.969Z,8.97
2019-05-22T08:16:59.580Z,9.00
2019-05-22T08:19:31.392Z,7.97
2019-05-22T08:22:07.422Z,7.73
2019-05-22T08:24:37.112Z,9.17
2019-05-22T08:27:09.556Z,9.10
2019-05-22T08:29:41.804Z,7.90
2019-05-22T08:32:13.535Z,8.80
2019-05-22T08:34:45.792Z,8.87
2019-05-22T08:37:23.097Z,8.87
2019-05-22T08:39:55.301Z,9.60
2019-05-22T08:42:28.600Z,10.20
2019-05-22T08:45:00.831Z,9.40
2019-05-22T08:47:32.800Z,10.87
2019-05-22T08:50:05.560Z,10.40
2019-05-22T08:52:38.344Z,11.40
2019-05-22T08:55:13.186Z,10.40
2019-05-22T08:57:45.225Z,10.20
2019-05-22T09:00:21.260Z,10.57
2019-05-22T09:02:53.366Z,9.93
2019-05-22T09:05:25.482Z,9.47
2019-05-22T09:07:57.524Z,9.40
2019-05-22T09:10:29.277Z,9.60
2019-05-22T09:13:01.273Z,9.40
2019-05-22T09:15:33.606Z,9.27
2019-05-22T09:18:06.166Z,8.80
2019-05-22T09:20:49.020Z,9.37
2019-05-22T09:23:12.087Z,9.30
2019-05-22T09:25:43.863Z,8.53
2019-05-22T09:28:15.604Z,8.97
2019-05-22T09:30:47.449Z,10.00
2019-05-22T09:33:19.462Z,10.00
2019-05-22T09:35:51.520Z,8.20
2019-05-22T09:38:23.789Z,8.10
2019-05-22T09:40:55.661Z,9.60
2019-05-22T09:43:27.566Z,7.80
2019-05-22T09:45:59.724Z,9.37
2019-05-22T09:48:31.694Z,9.00
2019-05-22T09:51:03.555Z,8.67
2019-05-22T09:53:35.520Z,9.43
2019-05-22T09:56:07.742Z,7.50
2019-05-22T09:58:39.374Z,8.40
2019-05-22T10:01:12.122Z,8.27
2019-05-22T10:03:43.975Z,7.73
2019-05-22T10:06:16.082Z,8.03
2019-05-22T10:08:47.818Z,7.47
2019-05-22T10:11:20.803Z,7.00
2019-05-22T10:13:52.612Z,7.93
2019-05-22T10:16:25.280Z,7.13
2019-05-22T10:18:57.179Z,8.00
2019-05-22T10:21:31.014Z,8.50
2019-05-22T10:24:02.963Z,7.97
2019-05-22T10:26:34.654Z,8.57
2019-05-22T10:29:06.513Z,6.70
2019-05-22T10:31:38.314Z,6.80
2019-05-22T10:34:10.238Z,6.17
2019-05-22T10:36:43.315Z,6.53
2019-05-22T10:39:15.062Z,6.10
2019-05-22T10:41:46.979Z,5.57
2019-05-22T10:44:19.393Z,5.50
2019-05-22T10:46:51.478Z,5.13
2019-05-22T10:49:23.699Z,5.00
2019-05-22T10:51:56.215Z,5.30
2019-05-22T10:54:27.925Z,6.17
2019-05-22T10:56:59.801Z,4.70
2019-05-22T10:59:32.147Z,5.03
2019-05-22T11:02:03.975Z,4.17
2019-05-22T11:04:39.217Z,4.33
2019-05-22T11:07:12.098Z,4.60
2019-05-22T11:09:44.682Z,4.83
2019-05-22T11:12:17.564Z,5.33
2019-05-22T11:14:49.547Z,5.10
2019-05-22T11:17:22.001Z,4.13
2019-05-22T11:19:53.919Z,5.10
2019-05-22T11:22:26.199Z,4.60
2019-05-22T11:24:58.010Z,4.37
2019-05-22T11:27:30.106Z,4.07
2019-05-22T11:30:01.888Z,4.97
2019-05-22T11:32:34.415Z,4.40
2019-05-22T11:35:07.496Z,4.20
2019-05-22T11:37:41.839Z,4.70
2019-05-22T11:40:14.249Z,5.00
2019-05-22T11:42:46.551Z,6.20
2019-05-22T11:45:19.005Z,5.37
2019-05-22T11:47:51.038Z,5.00
2019-05-22T11:50:25.898Z,4.70
2019-05-22T11:52:57.942Z,5.80
2019-05-22T11:55:43.621Z,5.47
2019-05-22T11:58:03.515Z,5.70
2019-05-22T12:00:35.377Z,5.60
2019-05-22T12:03:07.392Z,7.40
2019-05-22T12:05:39.385Z,6.60
2019-05-22T12:08:13.497Z,6.90
2019-05-22T12:10:45.686Z,6.23
2019-05-22T12:13:17.482Z,7.00
2019-05-22T12:15:49.400Z,6.70
2019-05-22T12:18:21.704Z,6.90
2019-05-22T12:20:53.587Z,6.73
2019-05-22T12:23:25.775Z,6.47
2019-05-22T12:25:57.915Z,6.50
2019-05-22T12:28:30.012Z,6.13
2019-05-22T12:31:03.073Z,5.80
2019-05-22T12:33:35.286Z,6.17
2019-05-22T12:36:10.013Z,5.40
2019-05-22T12:38:43.336Z,5.90
2019-05-22T12:41:16.029Z,6.00
2019-05-22T12:43:48.803Z,7.10
2019-05-22T12:46:21.554Z,7.90
2019-05-22T12:48:54.038Z,8.20
2019-05-22T12:51:27.860Z,8.83
2019-05-22T12:54:00.506Z,8.30
2019-05-22T12:56:33.318Z,9.37
2019-05-22T12:59:07.261Z,8.20
2019-05-22T13:01:39.282Z,8.63
2019-05-22T13:04:11.699Z,7.60
2019-05-22T13:06:45.571Z,7.73
2019-05-22T13:09:17.314Z,8.37
2019-05-22T13:11:49.520Z,7.70
2019-05-22T13:14:21.537Z,7.80
2019-05-22T13:16:53.249Z,7.30
2019-05-22T13:19:25.558Z,7.77
2019-05-22T13:22:00.486Z,6.83
2019-05-22T13:24:33.745Z,6.50
2019-05-22T13:27:07.795Z,6.90
2019-05-22T13:29:40.644Z,6.63
2019-05-22T13:32:14.239Z,6.30
2019-05-22T13:34:46.320Z,6.23
2019-05-22T13:37:19.306Z,5.60
2019-05-22T13:39:52.095Z,5.80
2019-05-22T13:42:24.486Z,6.47
2019-05-22T13:44:57.352Z,4.23
2019-05-22T13:47:29.230Z,5.33
2019-05-22T13:50:01.486Z,5.40
2019-05-22T13:52:34.587Z,6.20
2019-05-22T13:55:08.058Z,6.63
2019-05-22T13:57:43.401Z,6.30
2019-05-22T14:00:19.255Z,4.40
2019-05-22T14:02:51.449Z,4.73
2019-05-22T14:05:25.117Z,5.17
2019-05-22T14:07:57.020Z,5.20
2019-05-22T14:10:29.668Z,4.87
2019-05-22T14:13:02.099Z,4.30
2019-05-22T14:15:48.765Z,5.20
2019-05-22T14:18:08.806Z,4.70
2019-05-22T14:20:40.776Z,4.43
2019-05-22T14:23:13.380Z,4.37
2019-05-22T14:25:46.286Z,5.20
2019-05-22T14:28:19.650Z,4.77
2019-05-22T14:30:51.791Z,3.90
2019-05-22T14:33:23.554Z,4.73
2019-05-22T14:35:57.236Z,4.50
2019-05-22T14:38:29.856Z,4.43
2019-05-22T14:41:02.704Z,4.40
2019-05-22T14:43:34.791Z,4.07
2019-05-22T14:46:07.535Z,3.93
2019-05-22T14:48:41.146Z,3.57
2019-05-22T14:51:13.060Z,3.50
2019-05-22T14:53:45.956Z,3.70
2019-05-22T14:56:17.598Z,4.70
2019-05-22T14:58:49.788Z,5.10
2019-05-22T15:01:22.489Z,5.23
2019-05-22T15:03:54.470Z,4.40
2019-05-22T15:06:27.118Z,4.60
2019-05-22T15:08:59.066Z,5.10
2019-05-22T15:11:31.020Z,4.53
2019-05-22T15:14:02.667Z,4.60
2019-05-22T15:16:35.441Z,4.30
2019-05-22T15:19:07.681Z,3.60
2019-05-22T15:21:39.770Z,3.53
2019-05-22T15:24:11.758Z,4.20
2019-05-22T15:26:44.251Z,3.90
2019-05-22T15:29:17.015Z,4.20
2019-05-22T15:31:49.829Z,3.77
2019-05-22T15:34:22.104Z,4.80
2019-05-22T15:36:53.847Z,3.87
2019-05-22T15:39:27.111Z,3.53
2019-05-22T15:42:00.658Z,3.57
2019-05-22T15:44:33.510Z,3.27
2019-05-22T15:47:05.950Z,4.00
2019-05-22T15:49:41.368Z,3.70
2019-05-22T15:52:15.228Z,4.13
2019-05-22T15:54:47.488Z,4.17
2019-05-22T15:57:20.631Z,3.80
2019-05-22T15:59:52.395Z,4.07
2019-05-22T16:02:26.411Z,4.37
2019-05-22T16:04:59.049Z,5.07
2019-05-22T16:07:33.119Z,4.60
2019-05-22T16:10:06.440Z,3.50
2019-05-22T16:12:39.183Z,3.90
2019-05-22T16:15:12.515Z,4.50
2019-05-22T16:17:44.927Z,4.20
2019-05-22T16:20:17.485Z,4.07
2019-05-22T16:22:49.568Z,3.90
2019-05-22T16:25:23.636Z,4.23
2019-05-22T16:27:56.397Z,4.80
2019-05-22T16:30:28.484Z,3.93
2019-05-22T16:33:00.762Z,4.10
2019-05-22T16:35:33.307Z,4.80
2019-05-22T16:38:06.138Z,5.70
2019-05-22T16:40:39.158Z,5.13
2019-05-22T16:43:11.753Z,4.93
2019-05-22T16:45:44.921Z,4.60
2019-05-22T16:48:28.412Z,6.40
2019-05-22T16:50:52.025Z,7.33
2019-05-22T16:53:26.237Z,7.40
2019-05-22T16:55:58.576Z,7.23
2019-05-22T16:58:30.745Z,6.33
2019-05-22T17:01:03.471Z,7.90
2019-05-22T17:03:36.170Z,6.80
2019-05-22T17:06:08.084Z,7.10
2019-05-22T17:08:40.017Z,8.60
2019-05-22T17:11:12.008Z,6.80
2019-05-22T17:13:44.295Z,6.90
2019-05-22T17:16:17.148Z,6.13
2019-05-22T17:18:49.060Z,6.97
2019-05-22T17:21:21.069Z,6.00
2019-05-22T17:23:53.347Z,6.50
2019-05-22T17:26:25.487Z,6.60
2019-05-22T17:28:57.365Z,5.90
2019-05-22T17:31:30.190Z,6.60
2019-05-22T17:34:02.370Z,6.53
2019-05-22T17:36:34.282Z,5.93
2019-05-22T17:39:09.646Z,6.40
2019-05-22T17:41:42.513Z,5.90
2019-05-22T17:44:14.410Z,6.63
2019-05-22T17:46:47.269Z,6.20
2019-05-22T17:49:21.698Z,5.90
2019-05-22T17:51:54.459Z,5.40
2019-05-22T17:54:27.265Z,6.10
2019-05-22T17:56:59.074Z,5.33
2019-05-22T17:59:31.180Z,5.47
2019-05-22T18:02:04.516Z,5.30
2019-05-22T18:04:36.295Z,5.50
2019-05-22T18:07:08.561Z,4.77
2019-05-22T18:09:40.815Z,5.13
2019-05-22T18:12:14.348Z,5.40
2019-05-22T18:14:47.710Z,5.43
2019-05-22T18:17:20.036Z,5.00
2019-05-22T18:19:53.166Z,5.00
2019-05-22T18:22:25.156Z,5.20
2019-05-22T18:24:57.085Z,4.67
2019-05-22T18:27:29.188Z,4.90
2019-05-22T18:30:00.871Z,4.87
2019-05-22T18:32:36.074Z,4.80
2019-05-22T18:35:08.731Z,6.03
2019-05-22T18:37:40.984Z,5.83
2019-05-22T18:40:14.781Z,4.87
2019-05-22T18:42:47.243Z,5.27
2019-05-22T18:45:19.922Z,5.17
2019-05-22T18:47:52.001Z,4.70
2019-05-22T18:50:23.762Z,5.50
2019-05-22T18:52:55.755Z,6.67
2019-05-22T18:55:28.051Z,5.60
2019-05-22T18:58:00.041Z,5.17
2019-05-22T19:00:32.849Z,4.90
2019-05-22T19:03:05.018Z,5.97
2019-05-22T19:05:38.106Z,6.00
2019-05-22T19:08:10.228Z,6.03
2019-05-22T19:10:42.116Z,5.70
2019-05-22T19:13:14.818Z,6.10
2019-05-22T19:15:47.104Z,6.40
2019-05-22T19:18:19.382Z,6.30
2019-05-22T19:20:51.493Z,6.47
2019-05-22T19:23:23.905Z,6.47
2019-05-22T19:25:55.690Z,6.73
2019-05-22T19:28:42.077Z,6.40
2019-05-22T19:31:01.781Z,6.93
2019-05-22T19:33:33.608Z,7.00
2019-05-22T19:36:05.911Z,6.33
2019-05-22T19:38:38.011Z,7.13
2019-05-22T19:41:10.617Z,5.83
2019-05-22T19:43:43.287Z,6.30
2019-05-22T19:46:15.063Z,6.00
2019-05-22T19:48:46.956Z,6.50
2019-05-22T19:51:20.660Z,5.73
2019-05-22T19:53:52.582Z,6.67
2019-05-22T19:56:24.581Z,6.70
2019-05-22T19:58:57.008Z,5.93
2019-05-22T20:01:30.565Z,5.90
2019-05-22T20:04:03.560Z,6.70
2019-05-22T20:06:38.311Z,6.47
2019-05-22T20:09:11.842Z,5.73
2019-05-22T20:11:43.794Z,6.73
2019-05-22T20:14:16.796Z,6.67
2019-05-22T20:16:48.595Z,6.20
2019-05-22T20:19:20.696Z,6.33
2019-05-22T20:21:53.324Z,5.97
2019-05-22T20:24:25.733Z,6.40
2019-05-22T20:26:57.838Z,7.00
2019-05-22T20:29:29.976Z,7.00
2019-05-22T20:32:01.965Z,6.67
2019-05-22T20:34:34.194Z,5.77
2019-05-22T20:37:06.656Z,6.33
2019-05-22T20:39:38.604Z,6.00
2019-05-22T20:42:10.730Z,5.40
2019-05-22T20:44:43.958Z,5.30
2019-05-22T20:47:18.802Z,6.30
2019-05-22T20:49:51.606Z,6.10
2019-05-22T20:52:24.929Z,6.87
2019-05-22T20:54:58.439Z,6.67
2019-05-22T20:57:32.130Z,6.43
2019-05-22T21:00:06.498Z,7.37
2019-05-22T21:02:40.366Z,6.47
2019-05-22T21:05:13.020Z,6.60
2019-05-22T21:07:51.037Z,6.43
2019-05-22T21:10:24.538Z,6.50
2019-05-22T21:12:56.668Z,6.80
2019-05-22T21:15:29.272Z,6.33
2019-05-22T21:18:02.850Z,6.83
2019-05-22T21:20:36.111Z,6.10
2019-05-22T21:23:09.483Z,7.90
2019-05-22T21:25:42.468Z,6.80
2019-05-22T21:28:14.611Z,7.87
2019-05-22T21:30:47.526Z,7.50
2019-05-22T21:33:19.835Z,7.23
2019-05-22T21:35:51.919Z,6.33
2019-05-22T21:38:25.194Z,6.50
2019-05-22T21:40:57.926Z,7.10
2019-05-22T21:43:30.600Z,6.40
2019-05-22T21:46:02.925Z,6.17
2019-05-22T21:48:34.915Z,6.33
2019-05-22T21:51:07.497Z,6.10
2019-05-22T21:53:39.298Z,6.23
2019-05-22T21:56:11.235Z,6.53
2019-05-22T21:58:43.396Z,7.10
2019-05-22T22:01:46.536Z,5.97
2019-05-22T22:04:21.283Z,6.40
2019-05-22T22:06:55.680Z,6.63
2019-05-22T22:09:29.148Z,5.60
2019-05-22T22:12:01.122Z,5.50
2019-05-22T22:14:33.683Z,5.80
2019-05-22T22:17:05.804Z,6.20
2019-05-22T22:19:38.356Z,5.80
2019-05-22T22:22:15.101Z,6.17
2019-05-22T22:24:47.325Z,6.30
2019-05-22T22:27:19.600Z,7.00
2019-05-22T22:29:51.233Z,6.97
2019-05-22T22:32:24.590Z,8.17
2019-05-22T22:34:56.434Z,7.80
2019-05-22T22:37:29.232Z,7.50
2019-05-22T22:40:02.490Z,8.23
2019-05-22T22:42:37.025Z,7.27
2019-05-22T22:45:16.645Z,7.83
2019-05-22T22:47:51.035Z,8.20
2019-05-22T22:50:23.921Z,8.33
2019-05-22T22:52:56.325Z,6.93
2019-05-22T22:55:29.359Z,5.30
2019-05-22T22:58:16.097Z,5.87
2019-05-22T23:00:38.127Z,6.23
2019-05-22T23:03:13.042Z,5.20
2019-05-22T23:05:47.587Z,5.97
2019-05-22T23:08:27.571Z,6.33
2019-05-22T23:11:00.077Z,6.27
2019-05-22T23:13:32.058Z,5.80
2019-05-22T23:16:04.623Z,5.90
2019-05-22T23:19:44.431Z,5.70
2019-05-22T23:22:17.809Z,5.67
2019-05-22T23:24:52.024Z,6.97
2019-05-22T23:27:23.967Z,6.70
2019-05-22T23:29:57.068Z,6.93
2019-05-22T23:32:30.771Z,7.87
2019-05-22T23:35:03.266Z,7.90
2019-05-22T23:37:35.391Z,10.10
2019-05-22T23:40:08.343Z,8.17
2019-05-22T23:42:43.609Z,7.87
2019-05-22T23:45:20.526Z,7.87
2019-05-22T23:48:14.446Z,9.03
2019-05-22T23:50:47.312Z,8.47
2019-05-22T23:53:20.974Z,9.57
2019-05-22T23:55:54.237Z,7.30
2019-05-22T23:58:26.290Z,9.00
